sensor_id;sensor_type;location;lat;lon;timestamp;pressure;altitude;pressure_sealevel;temperature;humidity
73016;BME280;61893;50.074;14.440;2023-02-22T00:01:38;98553.47;;;9.20;68.37
73016;BME280;61893;50.074;14.440;2023-02-22T00:04:23;98544.13;;;9.16;68.37
73016;BME280;61893;50.074;14.440;2023-02-22T00:07:07;98544.44;;;9.03;69.12
73016;BME280;61893;50.074;14.440;2023-02-22T00:09:33;98544.97;;;9.16;69.04
73016;BME280;61893;50.074;14.440;2023-02-22T00:12:04;98542.06;;;9.00;69.29
73016;BME280;61893;50.074;14.440;2023-02-22T00:14:56;98548.19;;;9.10;68.90
73016;BME280;61893;50.074;14.440;2023-02-22T00:17:28;98546.91;;;9.14;68.81
73016;BME280;61893;50.074;14.440;2023-02-22T00:19:55;98554.06;;;9.04;69.06
73016;BME280;61893;50.074;14.440;2023-02-22T00:22:23;98554.91;;;9.05;69.35
73016;BME280;61893;50.074;14.440;2023-02-22T00:24:49;98555.03;;;9.03;69.15
73016;BME280;61893;50.074;14.440;2023-02-22T00:27:24;98546.69;;;8.88;70.01
73016;BME280;61893;50.074;14.440;2023-02-22T00:29:55;98546.41;;;8.91;69.61
73016;BME280;61893;50.074;14.440;2023-02-22T00:32:27;98549.88;;;8.92;69.73
73016;BME280;61893;50.074;14.440;2023-02-22T00:34:56;98545.41;;;8.92;69.67
73016;BME280;61893;50.074;14.440;2023-02-22T00:37:33;98551.31;;;8.76;69.89
73016;BME280;61893;50.074;14.440;2023-02-22T00:40:01;98547.94;;;8.74;70.93
73016;BME280;61893;50.074;14.440;2023-02-22T00:42:38;98545.88;;;8.59;71.08
73016;BME280;61893;50.074;14.440;2023-02-22T00:45:12;98555.50;;;8.79;70.66
73016;BME280;61893;50.074;14.440;2023-02-22T00:47:40;98546.84;;;8.77;70.55
73016;BME280;61893;50.074;14.440;2023-02-22T00:50:09;98534.66;;;8.84;70.08
73016;BME280;61893;50.074;14.440;2023-02-22T00:52:36;98538.03;;;8.86;70.00
73016;BME280;61893;50.074;14.440;2023-02-22T00:55:07;98540.28;;;8.71;70.33
73016;BME280;61893;50.074;14.440;2023-02-22T00:57:35;98539.59;;;8.79;70.29
73016;BME280;61893;50.074;14.440;2023-02-22T01:00:07;98545.41;;;8.92;69.90
73016;BME280;61893;50.074;14.440;2023-02-22T01:02:48;98544.28;;;8.95;69.81
73016;BME280;61893;50.074;14.440;2023-02-22T01:05:25;98534.13;;;8.90;70.43
73016;BME280;61893;50.074;14.440;2023-02-22T01:07:55;98538.84;;;8.87;70.40
73016;BME280;61893;50.074;14.440;2023-02-22T01:10:23;98533.72;;;8.85;70.64
73016;BME280;61893;50.074;14.440;2023-02-22T01:12:50;98542.50;;;8.66;70.87
73016;BME280;61893;50.074;14.440;2023-02-22T01:15:21;98534.00;;;8.63;71.28
73016;BME280;61893;50.074;14.440;2023-02-22T01:17:51;98531.91;;;8.76;71.21
73016;BME280;61893;50.074;14.440;2023-02-22T01:20:21;98528.53;;;8.74;70.68
73016;BME280;61893;50.074;14.440;2023-02-22T01:23:12;98530.38;;;8.54;71.84
73016;BME280;61893;50.074;14.440;2023-02-22T01:25:38;98521.56;;;8.53;72.47
73016;BME280;61893;50.074;14.440;2023-02-22T01:28:14;98524.50;;;8.41;72.78
73016;BME280;61893;50.074;14.440;2023-02-22T01:31:07;98518.22;;;8.51;72.36
73016;BME280;61893;50.074;14.440;2023-02-22T01:33:48;98523.50;;;8.61;72.71
73016;BME280;61893;50.074;14.440;2023-02-22T01:36:30;98520.59;;;8.64;72.25
73016;BME280;61893;50.074;14.440;2023-02-22T01:38:55;98522.13;;;8.76;71.74
73016;BME280;61893;50.074;14.440;2023-02-22T01:41:21;98527.28;;;8.68;71.97
73016;BME280;61893;50.074;14.440;2023-02-22T01:43:47;98520.44;;;8.66;72.43
73016;BME280;61893;50.074;14.440;2023-02-22T01:46:22;98530.50;;;8.62;72.42
73016;BME280;61893;50.074;14.440;2023-02-22T01:49:02;98527.69;;;8.64;72.41
73016;BME280;61893;50.074;14.440;2023-02-22T01:51:36;98514.56;;;8.72;72.51
73016;BME280;61893;50.074;14.440;2023-02-22T01:54:08;98519.47;;;8.57;72.63
73016;BME280;61893;50.074;14.440;2023-02-22T01:56:38;98515.31;;;8.45;73.27
73016;BME280;61893;50.074;14.440;2023-02-22T01:59:08;98514.75;;;8.51;73.23
73016;BME280;61893;50.074;14.440;2023-02-22T02:01:39;98512.22;;;8.49;73.21
73016;BME280;61893;50.074;14.440;2023-02-22T02:04:11;98514.06;;;8.59;73.11
73016;BME280;61893;50.074;14.440;2023-02-22T02:06:40;98509.72;;;8.48;73.65
73016;BME280;61893;50.074;14.440;2023-02-22T02:09:20;98517.09;;;8.54;73.20
73016;BME280;61893;50.074;14.440;2023-02-22T02:11:50;98508.03;;;8.56;73.57
73016;BME280;61893;50.074;14.440;2023-02-22T02:14:17;98501.47;;;8.70;72.83
73016;BME280;61893;50.074;14.440;2023-02-22T02:16:46;98511.94;;;8.62;72.92
73016;BME280;61893;50.074;14.440;2023-02-22T02:36:33;98516.00;;;8.76;72.62
73016;BME280;61893;50.074;14.440;2023-02-22T02:39:28;98506.22;;;8.47;73.86
73016;BME280;61893;50.074;14.440;2023-02-22T02:42:11;98506.72;;;8.12;75.03
73016;BME280;61893;50.074;14.440;2023-02-22T02:44:45;98512.31;;;8.38;74.52
73016;BME280;61893;50.074;14.440;2023-02-22T02:47:33;98502.44;;;8.30;74.83
73016;BME280;61893;50.074;14.440;2023-02-22T02:50:09;98501.31;;;8.33;74.96
73016;BME280;61893;50.074;14.440;2023-02-22T02:52:38;98495.19;;;8.42;74.79
73016;BME280;61893;50.074;14.440;2023-02-22T02:55:20;98489.44;;;8.27;74.76
73016;BME280;61893;50.074;14.440;2023-02-22T02:57:51;98491.25;;;8.27;75.27
73016;BME280;61893;50.074;14.440;2023-02-22T03:00:19;98496.81;;;8.24;75.20
73016;BME280;61893;50.074;14.440;2023-02-22T03:06:06;98481.78;;;8.44;75.16
73016;BME280;61893;50.074;14.440;2023-02-22T03:08:55;98478.13;;;8.25;74.89
73016;BME280;61893;50.074;14.440;2023-02-22T03:12:01;98481.34;;;8.29;74.92
73016;BME280;61893;50.074;14.440;2023-02-22T03:14:55;98475.19;;;8.38;75.29
73016;BME280;61893;50.074;14.440;2023-02-22T03:20:29;98474.53;;;8.46;74.66
73016;BME280;61893;50.074;14.440;2023-02-22T03:23:08;98467.56;;;8.45;74.74
73016;BME280;61893;50.074;14.440;2023-02-22T03:25:57;98462.81;;;8.48;74.82
73016;BME280;61893;50.074;14.440;2023-02-22T03:28:27;98468.38;;;8.26;75.12
73016;BME280;61893;50.074;14.440;2023-02-22T03:31:09;98469.06;;;8.18;75.72
73016;BME280;61893;50.074;14.440;2023-02-22T03:34:00;98473.44;;;8.39;75.11
73016;BME280;61893;50.074;14.440;2023-02-22T03:36:35;98474.53;;;8.55;74.66
73016;BME280;61893;50.074;14.440;2023-02-22T03:39:16;98475.63;;;8.33;75.26
73016;BME280;61893;50.074;14.440;2023-02-22T03:41:46;98466.97;;;8.61;74.43
73016;BME280;61893;50.074;14.440;2023-02-22T03:44:20;98466.19;;;8.50;74.60
73016;BME280;61893;50.074;14.440;2023-02-22T03:47:10;98471.72;;;8.28;75.35
73016;BME280;61893;50.074;14.440;2023-02-22T03:49:48;98472.16;;;8.33;75.92
73016;BME280;61893;50.074;14.440;2023-02-22T03:52:23;98465.72;;;8.16;75.89
73016;BME280;61893;50.074;14.440;2023-02-22T03:54:51;98474.38;;;8.28;75.93
73016;BME280;61893;50.074;14.440;2023-02-22T03:57:32;98467.13;;;8.30;75.73
73016;BME280;61893;50.074;14.440;2023-02-22T04:00:10;98471.63;;;8.39;75.39
73016;BME280;61893;50.074;14.440;2023-02-22T04:03:00;98474.09;;;8.21;75.79
73016;BME280;61893;50.074;14.440;2023-02-22T04:05:33;98470.63;;;8.30;76.02
73016;BME280;61893;50.074;14.440;2023-02-22T04:07:59;98463.94;;;8.46;75.52
73016;BME280;61893;50.074;14.440;2023-02-22T04:10:25;98457.63;;;8.37;75.53
73016;BME280;61893;50.074;14.440;2023-02-22T04:12:57;98457.19;;;8.32;75.82
73016;BME280;61893;50.074;14.440;2023-02-22T04:15:23;98460.84;;;8.21;76.46
73016;BME280;61893;50.074;14.440;2023-02-22T04:17:58;98463.34;;;8.13;77.07
73016;BME280;61893;50.074;14.440;2023-02-22T04:20:27;98464.47;;;8.20;76.69
73016;BME280;61893;50.074;14.440;2023-02-22T04:22:56;98457.91;;;8.05;77.12
73016;BME280;61893;50.074;14.440;2023-02-22T04:25:23;98458.88;;;8.23;76.59
73016;BME280;61893;50.074;14.440;2023-02-22T04:28:08;98460.69;;;8.32;75.77
73016;BME280;61893;50.074;14.440;2023-02-22T04:30:49;98461.44;;;8.44;75.90
73016;BME280;61893;50.074;14.440;2023-02-22T04:33:18;98457.22;;;8.51;75.00
73016;BME280;61893;50.074;14.440;2023-02-22T04:35:44;98459.06;;;8.51;75.18
73016;BME280;61893;50.074;14.440;2023-02-22T04:38:10;98458.34;;;8.49;75.22
73016;BME280;61893;50.074;14.440;2023-02-22T04:40:35;98459.72;;;8.63;75.06
73016;BME280;61893;50.074;14.440;2023-02-22T04:43:04;98453.59;;;8.62;75.08
73016;BME280;61893;50.074;14.440;2023-02-22T04:45:36;98454.84;;;8.68;74.85
73016;BME280;61893;50.074;14.440;2023-02-22T04:48:15;98454.56;;;8.71;74.72
73016;BME280;61893;50.074;14.440;2023-02-22T04:50:41;98453.84;;;8.69;74.93
73016;BME280;61893;50.074;14.440;2023-02-22T04:53:15;98454.28;;;8.54;74.62
73016;BME280;61893;50.074;14.440;2023-02-22T04:55:44;98454.44;;;8.53;75.15
73016;BME280;61893;50.074;14.440;2023-02-22T04:58:12;98454.59;;;8.42;75.62
73016;BME280;61893;50.074;14.440;2023-02-22T05:01:10;98449.09;;;8.24;76.28
73016;BME280;61893;50.074;14.440;2023-02-22T05:03:44;98449.97;;;8.34;75.55
73016;BME280;61893;50.074;14.440;2023-02-22T05:06:15;98449.84;;;8.45;75.54
73016;BME280;61893;50.074;14.440;2023-02-22T05:08:42;98452.06;;;8.40;75.84
73016;BME280;61893;50.074;14.440;2023-02-22T05:11:08;98446.94;;;8.39;75.56
73016;BME280;61893;50.074;14.440;2023-02-22T05:13:45;98449.97;;;8.44;75.35
73016;BME280;61893;50.074;14.440;2023-02-22T05:16:11;98450.69;;;8.46;75.41
73016;BME280;61893;50.074;14.440;2023-02-22T05:18:39;98450.69;;;8.46;75.42
73016;BME280;61893;50.074;14.440;2023-02-22T05:21:05;98454.44;;;8.43;75.46
73016;BME280;61893;50.074;14.440;2023-02-22T05:23:52;98448.44;;;8.41;76.01
73016;BME280;61893;50.074;14.440;2023-02-22T05:26:38;98454.56;;;8.51;75.22
73016;BME280;61893;50.074;14.440;2023-02-22T05:29:05;98453.56;;;8.23;76.18
73016;BME280;61893;50.074;14.440;2023-02-22T05:31:54;98449.53;;;8.00;77.19
73016;BME280;61893;50.074;14.440;2023-02-22T05:34:20;98451.50;;;8.07;77.22
73016;BME280;61893;50.074;14.440;2023-02-22T05:36:46;98445.63;;;8.23;76.49
73016;BME280;61893;50.074;14.440;2023-02-22T05:39:32;98446.31;;;8.35;76.45
73016;BME280;61893;50.074;14.440;2023-02-22T05:42:31;98458.59;;;8.55;75.72
73016;BME280;61893;50.074;14.440;2023-02-22T05:44:58;98455.44;;;8.42;75.67
73016;BME280;61893;50.074;14.440;2023-02-22T05:47:39;98459.44;;;8.37;76.02
73016;BME280;61893;50.074;14.440;2023-02-22T05:50:20;98452.91;;;8.60;75.39
73016;BME280;61893;50.074;14.440;2023-02-22T05:53:12;98447.59;;;8.60;75.23
73016;BME280;61893;50.074;14.440;2023-02-22T05:55:52;98459.03;;;8.41;75.60
73016;BME280;61893;50.074;14.440;2023-02-22T05:58:20;98454.44;;;8.43;76.09
73016;BME280;61893;50.074;14.440;2023-02-22T06:01:05;98455.66;;;8.29;76.97
73016;BME280;61893;50.074;14.440;2023-02-22T06:03:31;98453.47;;;8.54;75.92
73016;BME280;61893;50.074;14.440;2023-02-22T06:05:57;98454.16;;;8.46;76.07
73016;BME280;61893;50.074;14.440;2023-02-22T06:08:26;98462.25;;;8.54;75.56
73016;BME280;61893;50.074;14.440;2023-02-22T06:10:58;98461.56;;;8.33;76.06
73016;BME280;61893;50.074;14.440;2023-02-22T06:13:26;98460.13;;;8.29;76.59
73016;BME280;61893;50.074;14.440;2023-02-22T06:15:53;98459.19;;;8.30;76.44
73016;BME280;61893;50.074;14.440;2023-02-22T06:18:19;98464.31;;;8.31;76.44
73016;BME280;61893;50.074;14.440;2023-02-22T06:20:47;98458.34;;;8.10;77.35
73016;BME280;61893;50.074;14.440;2023-02-22T06:23:18;98464.75;;;8.17;77.44
73016;BME280;61893;50.074;14.440;2023-02-22T06:25:49;98464.03;;;8.05;78.03
73016;BME280;61893;50.074;14.440;2023-02-22T06:28:20;98472.69;;;8.17;77.44
73016;BME280;61893;50.074;14.440;2023-02-22T06:30:46;98476.75;;;8.31;77.46
73016;BME280;61893;50.074;14.440;2023-02-22T06:33:18;98476.19;;;8.37;76.61
73016;BME280;61893;50.074;14.440;2023-02-22T06:35:49;98476.31;;;8.26;77.37
73016;BME280;61893;50.074;14.440;2023-02-22T06:38:25;98482.31;;;8.38;77.05
73016;BME280;61893;50.074;14.440;2023-02-22T06:41:07;98470.06;;;8.46;76.39
73016;BME280;61893;50.074;14.440;2023-02-22T06:43:33;98473.53;;;8.18;77.48
73016;BME280;61893;50.074;14.440;2023-02-22T06:46:01;98482.31;;;7.99;77.84
73016;BME280;61893;50.074;14.440;2023-02-22T06:48:30;98481.47;;;8.18;77.94
73016;BME280;61893;50.074;14.440;2023-02-22T06:51:11;98479.28;;;8.42;76.71
73016;BME280;61893;50.074;14.440;2023-02-22T06:53:55;98472.44;;;8.59;76.15
73016;BME280;61893;50.074;14.440;2023-02-22T06:56:53;98485.44;;;8.62;76.67
73016;BME280;61893;50.074;14.440;2023-02-22T06:59:45;98485.25;;;8.64;75.75
73016;BME280;61893;50.074;14.440;2023-02-22T07:02:41;98488.19;;;8.80;75.38
73016;BME280;61893;50.074;14.440;2023-02-22T07:05:25;98491.28;;;8.66;75.41
73016;BME280;61893;50.074;14.440;2023-02-22T07:08:00;98492.66;;;8.79;75.45
73016;BME280;61893;50.074;14.440;2023-02-22T07:10:31;98488.72;;;8.93;74.51
73016;BME280;61893;50.074;14.440;2023-02-22T07:13:45;98489.72;;;8.83;74.76
73016;BME280;61893;50.074;14.440;2023-02-22T07:16:26;98487.56;;;9.06;73.85
73016;BME280;61893;50.074;14.440;2023-02-22T07:19:44;98488.78;;;9.21;72.96
73016;BME280;61893;50.074;14.440;2023-02-22T07:22:30;98492.88;;;9.06;73.36
73016;BME280;61893;50.074;14.440;2023-02-22T07:31:40;98492.91;;;8.96;73.39
73016;BME280;61893;50.074;14.440;2023-02-22T07:34:51;98489.63;;;9.21;73.37
73016;BME280;61893;50.074;14.440;2023-02-22T07:38:37;98488.47;;;9.61;72.25
73016;BME280;61893;50.074;14.440;2023-02-22T07:42:32;98491.66;;;9.37;72.88
73016;BME280;61893;50.074;14.440;2023-02-22T07:45:29;98488.66;;;9.22;73.52
73016;BME280;61893;50.074;14.440;2023-02-22T07:48:42;98496.19;;;9.17;73.22
73016;BME280;61893;50.074;14.440;2023-02-22T07:55:01;98485.09;;;9.41;72.29
73016;BME280;61893;50.074;14.440;2023-02-22T07:57:56;98484.09;;;9.42;72.53
73016;BME280;61893;50.074;14.440;2023-02-22T08:00:43;98481.75;;;9.30;72.98
73016;BME280;61893;50.074;14.440;2023-02-22T08:03:43;98493.38;;;9.29;72.99
73016;BME280;61893;50.074;14.440;2023-02-22T08:06:17;98485.28;;;9.58;72.48
73016;BME280;61893;50.074;14.440;2023-02-22T08:08:47;98482.94;;;9.82;70.70
73016;BME280;61893;50.074;14.440;2023-02-22T08:11:16;98480.78;;;10.13;71.20
73016;BME280;61893;50.074;14.440;2023-02-22T08:20:43;98487.22;;;9.65;69.66
73016;BME280;61893;50.074;14.440;2023-02-22T08:23:52;98487.44;;;9.72;69.33
73016;BME280;61893;50.074;14.440;2023-02-22T08:26:57;98480.47;;;9.71;69.52
73016;BME280;61893;50.074;14.440;2023-02-22T08:39:04;98493.88;;;9.97;68.09
73016;BME280;61893;50.074;14.440;2023-02-22T08:41:54;98494.66;;;10.07;68.61
73016;BME280;61893;50.074;14.440;2023-02-22T08:44:51;98496.00;;;9.93;68.14
73016;BME280;61893;50.074;14.440;2023-02-22T08:47:46;98488.88;;;10.12;67.27
73016;BME280;61893;50.074;14.440;2023-02-22T08:50:58;98491.75;;;10.19;67.92
73016;BME280;61893;50.074;14.440;2023-02-22T09:25:34;98488.75;;;10.85;64.96
73016;BME280;61893;50.074;14.440;2023-02-22T09:28:18;98490.81;;;10.73;65.16
73016;BME280;61893;50.074;14.440;2023-02-22T09:31:11;98484.25;;;11.12;63.65
73016;BME280;61893;50.074;14.440;2023-02-22T09:34:22;98483.97;;;10.71;65.24
73016;BME280;61893;50.074;14.440;2023-02-22T09:37:30;98488.34;;;10.80;64.96
73016;BME280;61893;50.074;14.440;2023-02-22T09:40:18;98483.75;;;11.42;63.30
73016;BME280;61893;50.074;14.440;2023-02-22T09:43:44;98480.72;;;11.37;62.19
73016;BME280;61893;50.074;14.440;2023-02-22T09:46:56;98488.94;;;10.92;63.51
73016;BME280;61893;50.074;14.440;2023-02-22T10:09:12;98469.16;;;11.55;62.50
73016;BME280;61893;50.074;14.440;2023-02-22T10:27:16;98453.78;;;11.40;62.16
73016;BME280;61893;50.074;14.440;2023-02-22T10:30:33;98451.53;;;10.93;63.70
73016;BME280;61893;50.074;14.440;2023-02-22T10:34:08;98446.16;;;11.45;62.54
73016;BME280;61893;50.074;14.440;2023-02-22T10:37:38;98449.53;;;12.06;60.21
73016;BME280;61893;50.074;14.440;2023-02-22T10:40:28;98442.41;;;12.39;59.09
73016;BME280;61893;50.074;14.440;2023-02-22T10:43:04;98440.41;;;12.25;59.88
73016;BME280;61893;50.074;14.440;2023-02-22T10:46:19;98433.38;;;12.24;59.40
73016;BME280;61893;50.074;14.440;2023-02-22T10:49:50;98441.56;;;12.31;58.85
73016;BME280;61893;50.074;14.440;2023-02-22T10:53:13;98434.56;;;12.38;58.75
73016;BME280;61893;50.074;14.440;2023-02-22T10:56:09;98434.16;;;11.49;61.22
73016;BME280;61893;50.074;14.440;2023-02-22T10:58:52;98433.13;;;11.85;60.68
73016;BME280;61893;50.074;14.440;2023-02-22T11:05:25;98433.69;;;11.97;60.65
73016;BME280;61893;50.074;14.440;2023-02-22T11:11:28;98424.16;;;11.86;60.60
73016;BME280;61893;50.074;14.440;2023-02-22T11:18:26;98418.06;;;12.51;58.14
73016;BME280;61893;50.074;14.440;2023-02-22T11:21:48;98411.84;;;12.91;57.20
73016;BME280;61893;50.074;14.440;2023-02-22T11:24:20;98410.47;;;12.95;56.37
73016;BME280;61893;50.074;14.440;2023-02-22T11:27:01;98409.66;;;12.78;56.32
73016;BME280;61893;50.074;14.440;2023-02-22T11:30:35;98401.63;;;13.03;55.92
73016;BME280;61893;50.074;14.440;2023-02-22T11:33:59;98401.72;;;13.34;55.00
73016;BME280;61893;50.074;14.440;2023-02-22T11:40:40;98403.13;;;13.05;55.34
73016;BME280;61893;50.074;14.440;2023-02-22T11:44:10;98397.19;;;12.54;56.74
73016;BME280;61893;50.074;14.440;2023-02-22T11:47:10;98386.28;;;12.97;55.79
73016;BME280;61893;50.074;14.440;2023-02-22T11:49:38;98379.25;;;13.83;62.05
73016;BME280;61893;50.074;14.440;2023-02-22T11:52:38;98383.09;;;14.49;61.78
73016;BME280;61893;50.074;14.440;2023-02-22T11:55:16;98376.31;;;14.76;59.36
73016;BME280;61893;50.074;14.440;2023-02-22T11:58:00;98370.00;;;15.73;62.54
73016;BME280;61893;50.074;14.440;2023-02-22T12:36:47;98352.75;;;12.94;56.65
73016;BME280;61893;50.074;14.440;2023-02-22T12:40:12;98354.44;;;12.79;57.85
73016;BME280;61893;50.074;14.440;2023-02-22T12:43:38;98349.25;;;12.94;58.50
73016;BME280;61893;50.074;14.440;2023-02-22T12:46:12;98357.03;;;13.03;56.35
73016;BME280;61893;50.074;14.440;2023-02-22T12:49:16;98356.97;;;12.56;58.01
73016;BME280;61893;50.074;14.440;2023-02-22T12:52:23;98357.16;;;12.62;57.67
73016;BME280;61893;50.074;14.440;2023-02-22T12:55:38;98347.16;;;12.48;58.33
73016;BME280;61893;50.074;14.440;2023-02-22T13:05:48;98348.66;;;12.02;59.52
73016;BME280;61893;50.074;14.440;2023-02-22T13:08:42;98345.34;;;12.24;58.73
73016;BME280;61893;50.074;14.440;2023-02-22T13:11:23;98344.84;;;12.29;58.45
73016;BME280;61893;50.074;14.440;2023-02-22T13:18:27;98340.53;;;12.20;58.66
73016;BME280;61893;50.074;14.440;2023-02-22T13:27:08;98330.47;;;12.54;57.90
73016;BME280;61893;50.074;14.440;2023-02-22T13:30:35;98327.25;;;12.67;57.37
73016;BME280;61893;50.074;14.440;2023-02-22T13:40:24;98335.53;;;12.00;59.47
73016;BME280;61893;50.074;14.440;2023-02-22T13:53:14;98336.19;;;12.10;59.28
73016;BME280;61893;50.074;14.440;2023-02-22T13:55:46;98333.69;;;12.25;58.60
73016;BME280;61893;50.074;14.440;2023-02-22T13:58:14;98333.16;;;12.30;58.70
73016;BME280;61893;50.074;14.440;2023-02-22T14:13:28;98333.34;;;12.20;58.81
73016;BME280;61893;50.074;14.440;2023-02-22T14:16:18;98330.84;;;12.18;58.45
73016;BME280;61893;50.074;14.440;2023-02-22T14:19:33;98331.34;;;11.98;59.10
73016;BME280;61893;50.074;14.440;2023-02-22T14:22:41;98326.19;;;11.96;60.12
73016;BME280;61893;50.074;14.440;2023-02-22T14:26:24;98331.69;;;11.86;60.47
73016;BME280;61893;50.074;14.440;2023-02-22T14:30:23;98328.41;;;11.42;61.92
73016;BME280;61893;50.074;14.440;2023-02-22T14:40:25;98322.44;;;11.48;62.28
73016;BME280;61893;50.074;14.440;2023-02-22T14:43:28;98319.41;;;11.43;62.82
73016;BME280;61893;50.074;14.440;2023-02-22T14:47:30;98324.78;;;11.51;62.43
73016;BME280;61893;50.074;14.440;2023-02-22T14:50:50;98321.75;;;11.46;63.21
73016;BME280;61893;50.074;14.440;2023-02-22T14:56:46;98317.91;;;11.40;62.87
73016;BME280;61893;50.074;14.440;2023-02-22T15:00:36;98323.38;;;11.39;63.26
73016;BME280;61893;50.074;14.440;2023-02-22T15:04:27;98321.06;;;11.27;64.01
73016;BME280;61893;50.074;14.440;2023-02-22T15:08:26;98321.38;;;11.33;63.75
73016;BME280;61893;50.074;14.440;2023-02-22T15:11:28;98319.38;;;11.26;63.85
73016;BME280;61893;50.074;14.440;2023-02-22T15:14:39;98322.69;;;11.20;64.24
73016;BME280;61893;50.074;14.440;2023-02-22T15:17:54;98327.19;;;11.20;64.32
73016;BME280;61893;50.074;14.440;2023-02-22T15:21:27;98315.81;;;11.10;64.65
73016;BME280;61893;50.074;14.440;2023-02-22T15:24:59;98317.28;;;11.04;64.18
73016;BME280;61893;50.074;14.440;2023-02-22T15:28:05;98322.91;;;10.93;64.17
73016;BME280;61893;50.074;14.440;2023-02-22T15:34:28;98316.72;;;10.84;64.65
73016;BME280;61893;50.074;14.440;2023-02-22T15:38:02;98311.38;;;10.76;64.89
73016;BME280;61893;50.074;14.440;2023-02-22T15:41:40;98317.19;;;10.79;64.90
73016;BME280;61893;50.074;14.440;2023-02-22T15:44:39;98315.00;;;10.75;64.47
73016;BME280;61893;50.074;14.440;2023-02-22T15:47:18;98316.69;;;10.76;64.20
73016;BME280;61893;50.074;14.440;2023-02-22T15:53:57;98318.75;;;10.56;64.24
73016;BME280;61893;50.074;14.440;2023-02-22T15:57:13;98318.84;;;10.46;64.82
73016;BME280;61893;50.074;14.440;2023-02-22T16:00:26;98312.81;;;10.44;64.44
73016;BME280;61893;50.074;14.440;2023-02-22T16:03:23;98316.19;;;10.46;64.80
73016;BME280;61893;50.074;14.440;2023-02-22T16:06:47;98315.03;;;10.49;64.90
73016;BME280;61893;50.074;14.440;2023-02-22T16:09:32;98314.53;;;10.45;65.60
73016;BME280;61893;50.074;14.440;2023-02-22T16:13:26;98308.38;;;10.45;65.20
73016;BME280;61893;50.074;14.440;2023-02-22T16:19:37;98304.44;;;10.31;65.90
73016;BME280;61893;50.074;14.440;2023-02-22T16:22:46;98303.06;;;10.27;66.22
73016;BME280;61893;50.074;14.440;2023-02-22T16:29:36;98309.69;;;10.23;66.06
73016;BME280;61893;50.074;14.440;2023-02-22T16:32:27;98316.13;;;10.20;66.69
73016;BME280;61893;50.074;14.440;2023-02-22T16:35:32;98312.91;;;10.08;66.80
73016;BME280;61893;50.074;14.440;2023-02-22T16:38:20;98311.38;;;10.06;67.26
73016;BME280;61893;50.074;14.440;2023-02-22T16:41:59;98315.03;;;10.05;67.04
73016;BME280;61893;50.074;14.440;2023-02-22T16:45:22;98312.00;;;10.00;67.73
73016;BME280;61893;50.074;14.440;2023-02-22T16:48:33;98314.59;;;9.91;68.11
73016;BME280;61893;50.074;14.440;2023-02-22T16:54:40;98324.22;;;9.92;68.12
73016;BME280;61893;50.074;14.440;2023-02-22T16:57:56;98322.56;;;9.91;68.14
73016;BME280;61893;50.074;14.440;2023-02-22T17:00:41;98321.44;;;9.76;68.47
73016;BME280;61893;50.074;14.440;2023-02-22T17:04:00;98323.41;;;9.74;68.75
73016;BME280;61893;50.074;14.440;2023-02-22T17:07:23;98312.31;;;9.61;68.76
73016;BME280;61893;50.074;14.440;2023-02-22T17:10:34;98321.28;;;9.60;68.48
73016;BME280;61893;50.074;14.440;2023-02-22T17:13:50;98330.69;;;9.54;68.50
73016;BME280;61893;50.074;14.440;2023-02-22T17:17:24;98327.72;;;9.57;67.95
73016;BME280;61893;50.074;14.440;2023-02-22T17:20:26;98329.16;;;9.52;67.66
73016;BME280;61893;50.074;14.440;2023-02-22T17:23:58;98335.22;;;9.44;68.36
73016;BME280;61893;50.074;14.440;2023-02-22T17:27:11;98337.03;;;9.43;68.48
73016;BME280;61893;50.074;14.440;2023-02-22T17:30:14;98336.00;;;9.36;68.93
73016;BME280;61893;50.074;14.440;2023-02-22T17:33:05;98342.25;;;9.35;69.10
73016;BME280;61893;50.074;14.440;2023-02-22T17:36:10;98340.41;;;9.45;69.06
73016;BME280;61893;50.074;14.440;2023-02-22T17:39:06;98331.72;;;9.43;68.58
73016;BME280;61893;50.074;14.440;2023-02-22T17:42:01;98329.69;;;9.37;69.30
73016;BME280;61893;50.074;14.440;2023-02-22T17:45:09;98333.78;;;9.32;69.40
73016;BME280;61893;50.074;14.440;2023-02-22T17:48:12;98330.81;;;9.35;68.86
73016;BME280;61893;50.074;14.440;2023-02-22T17:51:21;98329.50;;;9.21;69.43
73016;BME280;61893;50.074;14.440;2023-02-22T17:54:46;98332.75;;;9.15;69.70
73016;BME280;61893;50.074;14.440;2023-02-22T17:57:35;98323.63;;;9.27;69.09
73016;BME280;61893;50.074;14.440;2023-02-22T18:00:55;98322.31;;;9.31;69.04
73016;BME280;61893;50.074;14.440;2023-02-22T18:04:09;98322.75;;;9.27;69.11
73016;BME280;61893;50.074;14.440;2023-02-22T18:07:07;98314.56;;;9.20;69.12
73016;BME280;61893;50.074;14.440;2023-02-22T18:10:03;98328.19;;;9.07;69.82
73016;BME280;61893;50.074;14.440;2023-02-22T18:12:33;98320.69;;;9.20;69.26
73016;BME280;61893;50.074;14.440;2023-02-22T18:15:48;98319.75;;;9.21;69.09
73016;BME280;61893;50.074;14.440;2023-02-22T18:19:43;98322.72;;;9.09;69.81
73016;BME280;61893;50.074;14.440;2023-02-22T18:23:18;98323.09;;;8.96;70.26
73016;BME280;61893;50.074;14.440;2023-02-22T18:26:33;98324.22;;;8.93;70.40
73016;BME280;61893;50.074;14.440;2023-02-22T18:29:33;98322.38;;;8.94;70.33
73016;BME280;61893;50.074;14.440;2023-02-22T18:32:03;98323.31;;;9.02;70.33
73016;BME280;61893;50.074;14.440;2023-02-22T18:35:48;98323.66;;;8.90;70.59
73016;BME280;61893;50.074;14.440;2023-02-22T18:39:27;98325.13;;;8.74;71.07
73016;BME280;61893;50.074;14.440;2023-02-22T18:42:39;98319.22;;;8.80;70.69
73016;BME280;61893;50.074;14.440;2023-02-22T18:45:30;98313.78;;;8.82;70.78
73016;BME280;61893;50.074;14.440;2023-02-22T18:48:03;98313.78;;;8.82;70.36
73016;BME280;61893;50.074;14.440;2023-02-22T18:50:38;98325.31;;;8.63;71.45
73016;BME280;61893;50.074;14.440;2023-02-22T18:53:24;98315.28;;;8.57;71.57
73016;BME280;61893;50.074;14.440;2023-02-22T18:56:26;98324.34;;;8.54;71.68
73016;BME280;61893;50.074;14.440;2023-02-22T18:59:21;98315.16;;;8.59;71.47